Metar z połowy godziny Komunikat METAR ze strony awiacja.imgw.pl Metar Mil EPKS METAR EPKS 230900Z 30016KT 9999 BKN025 08/05 Q1022 RMK 076 082 7/7=